Terminal Aerodrome Forecast
Issued by NWS

Current Version | Previous Version | Text Only | Print | Product List | Glossary Off
Versions: 1 2 3 4 5 6 7 8 9 10 11 12 13 14 15 16 17 18 19 20 21 22 23 24 25 26 27 28 29 30 31 32 33 34 35 36 37 38 39 40 41 42 43

000
FTUS41 KRNK 251122 CCA
TAFLWB
TAF COR
KLWB 251122Z 2512/2612 00000KT 1/4SM FG VV001
      TEMPO 2512/2513 2SM BR SCT001
     FM251330 00000KT P6SM SCT006 SCT030
     FM251500 11003KT P6SM SCT040
     FM260700 00000KT 3SM BR SCT001
     FM260900 00000KT 1/4SM FG BKN001=

USA.gov is the U.S. government's official web portal to all federal, state and local government web resources and services.